createdAt,value
2017-06-24T00:01:10.683Z,62.20
2017-06-24T00:03:39.359Z,62.60
2017-06-24T00:06:07.756Z,62.90
2017-06-24T00:08:36.053Z,62.90
2017-06-24T00:11:04.343Z,62.90
2017-06-24T00:16:02.323Z,63.50
2017-06-24T00:18:30.611Z,63.20
2017-06-24T00:23:28.835Z,63.30
2017-06-24T00:25:57.107Z,64.40
2017-06-24T00:28:25.476Z,64.40
2017-06-24T00:30:54.528Z,64.60
2017-06-24T00:33:22.811Z,63.50
2017-06-24T00:35:51.123Z,64.00
2017-06-24T00:38:19.399Z,64.60
2017-06-24T00:40:48.816Z,63.70
2017-06-24T00:43:18.431Z,64.10
2017-06-24T00:45:47.103Z,64.90
2017-06-24T00:48:15.383Z,64.70
2017-06-24T00:50:43.704Z,63.60
2017-06-24T00:53:11.979Z,63.80
2017-06-24T00:55:40.663Z,64.30
2017-06-24T00:58:09.651Z,64.20
2017-06-24T01:00:38.353Z,65.10
2017-06-24T01:03:06.664Z,64.20
2017-06-24T01:05:35.018Z,64.20
2017-06-24T01:10:33.146Z,65.00
2017-06-24T01:13:01.470Z,65.30
2017-06-24T01:15:30.510Z,64.80
2017-06-24T01:17:58.785Z,65.40
2017-06-24T01:20:28.614Z,65.30
2017-06-24T01:22:56.899Z,65.40
2017-06-24T01:25:25.202Z,65.50
2017-06-24T01:27:53.580Z,65.40
2017-06-24T01:30:23.008Z,65.90
2017-06-24T01:32:52.055Z,66.10
2017-06-24T01:35:21.590Z,66.10
2017-06-24T01:37:49.867Z,66.70
2017-06-24T01:40:18.143Z,66.80
2017-06-24T01:42:46.472Z,66.70
2017-06-24T01:47:44.256Z,67.50
2017-06-24T01:50:13.059Z,67.10
2017-06-24T01:52:42.103Z,67.20
2017-06-24T01:55:10.387Z,67.80
2017-06-24T02:00:08.241Z,67.70
2017-06-24T02:05:06.495Z,68.20
2017-06-24T02:07:35.563Z,68.50
2017-06-24T02:10:03.841Z,68.40
2017-06-24T02:15:01.670Z,68.20
2017-06-24T02:17:29.947Z,68.20
2017-06-24T02:19:58.298Z,68.30
2017-06-24T02:22:28.070Z,68.40
2017-06-24T02:24:56.352Z,68.50
2017-06-24T02:27:24.694Z,69.10
2017-06-24T02:29:53.755Z,68.90
2017-06-24T02:32:22.795Z,68.70
2017-06-24T02:34:52.254Z,68.80
2017-06-24T02:37:20.531Z,69.10
2017-06-24T02:39:50.318Z,69.10
2017-06-24T02:42:19.035Z,69.30
2017-06-24T02:49:46.762Z,69.90
2017-06-24T02:52:15.039Z,69.90
2017-06-24T02:54:44.089Z,70.30
2017-06-24T02:57:13.182Z,70.40
2017-06-24T02:59:41.459Z,70.60
2017-06-24T03:02:10.507Z,70.80
2017-06-24T03:04:40.069Z,70.00
2017-06-24T03:07:08.375Z,70.30
2017-06-24T03:12:31.366Z,70.20
2017-06-24T03:15:00.043Z,70.40
2017-06-24T03:17:28.320Z,70.20
2017-06-24T03:19:58.154Z,70.30
2017-06-24T03:24:56.335Z,71.20
2017-06-24T03:27:24.698Z,71.60
2017-06-24T03:29:52.992Z,71.00
2017-06-24T03:32:21.271Z,71.40
2017-06-24T03:34:49.758Z,71.30
2017-06-24T03:37:18.802Z,71.60
2017-06-24T03:39:47.078Z,71.80
2017-06-24T03:42:15.416Z,72.40
2017-06-24T03:44:43.695Z,72.20
2017-06-24T03:47:11.975Z,72.00
2017-06-24T03:49:40.315Z,72.40
2017-06-24T03:52:08.599Z,72.50
2017-06-24T03:57:07.645Z,71.90
2017-06-24T03:59:35.933Z,72.70
2017-06-24T04:02:04.611Z,72.10
2017-06-24T04:04:34.107Z,73.00
2017-06-24T04:07:02.398Z,72.50
2017-06-24T04:09:31.070Z,72.40
2017-06-24T04:12:00.531Z,71.70
2017-06-24T04:14:28.839Z,72.40
2017-06-24T04:16:57.114Z,72.00
2017-06-24T04:19:25.461Z,72.40
2017-06-24T04:21:55.254Z,71.70
2017-06-24T04:24:23.543Z,71.70
2017-06-24T04:26:51.890Z,72.10
2017-06-24T04:29:20.179Z,71.90
2017-06-24T04:31:48.462Z,72.10
2017-06-24T04:34:17.562Z,72.50
2017-06-24T04:36:46.599Z,73.10
2017-06-24T04:46:43.894Z,72.60
2017-06-24T04:49:12.635Z,73.50
2017-06-24T04:51:40.934Z,73.60
2017-06-24T04:54:09.235Z,72.70
2017-06-24T04:56:38.756Z,72.60
2017-06-24T04:59:07.818Z,73.30
2017-06-24T05:01:37.624Z,72.90
2017-06-24T05:04:07.521Z,72.10
2017-06-24T05:06:35.835Z,71.60
2017-06-24T05:09:04.146Z,72.10
2017-06-24T05:11:33.639Z,71.80
2017-06-24T05:14:02.311Z,72.10
2017-06-24T05:16:31.356Z,73.20
2017-06-24T05:19:00.448Z,73.10
2017-06-24T05:21:28.723Z,72.40
2017-06-24T05:26:27.319Z,72.50
2017-06-24T05:28:56.072Z,71.40
2017-06-24T05:31:24.371Z,72.60
2017-06-24T05:33:52.702Z,72.80
2017-06-24T05:36:22.123Z,73.30
2017-06-24T05:38:50.408Z,72.50
2017-06-24T05:41:18.739Z,71.60
2017-06-24T05:43:47.022Z,72.90
2017-06-24T05:46:15.311Z,71.40
2017-06-24T05:48:43.632Z,71.60
2017-06-24T05:51:11.912Z,71.00
2017-06-24T05:53:40.987Z,70.80
2017-06-24T05:56:10.087Z,71.10
2017-06-24T05:58:38.409Z,71.80
2017-06-24T06:01:07.503Z,71.60
2017-06-24T06:03:37.377Z,71.30
2017-06-24T06:06:06.431Z,72.40
2017-06-24T06:08:34.971Z,71.00
2017-06-24T06:11:03.691Z,72.00
2017-06-24T06:13:31.970Z,71.90
2017-06-24T06:16:00.254Z,72.70
2017-06-24T06:18:28.575Z,71.80
2017-06-24T06:20:58.366Z,71.60
2017-06-24T06:23:27.419Z,73.00
2017-06-24T06:25:56.911Z,71.80
2017-06-24T06:28:25.202Z,71.70
2017-06-24T06:33:23.489Z,71.90
2017-06-24T06:35:51.774Z,71.10
2017-06-24T06:38:20.064Z,71.10
2017-06-24T06:40:49.158Z,72.10
2017-06-24T06:43:17.430Z,71.70
2017-06-24T06:45:45.707Z,70.20
2017-06-24T06:48:14.811Z,70.70
2017-06-24T06:50:43.493Z,70.10
2017-06-24T06:53:11.775Z,70.20
2017-06-24T06:55:40.125Z,68.90
2017-06-24T06:58:08.435Z,69.60
2017-06-24T07:00:36.735Z,69.20
2017-06-24T07:03:05.111Z,68.30
2017-06-24T07:05:33.387Z,65.80
2017-06-24T07:10:31.221Z,64.60
2017-06-24T07:12:59.515Z,63.00
2017-06-24T07:15:29.319Z,62.60
2017-06-24T07:22:57.044Z,59.40
2017-06-24T07:25:25.508Z,59.80
2017-06-24T07:27:55.326Z,58.50
2017-06-24T07:35:23.464Z,57.60
2017-06-24T07:37:51.806Z,56.40
2017-06-24T07:40:20.079Z,56.30
2017-06-24T07:42:48.359Z,56.50
2017-06-24T07:45:16.690Z,56.50
2017-06-24T07:47:44.974Z,56.80
2017-06-24T07:50:13.258Z,57.10
2017-06-24T07:52:42.710Z,57.00
2017-06-24T07:55:11.004Z,57.30
2017-06-24T07:57:39.283Z,56.30
2017-06-24T08:00:07.651Z,56.80
2017-06-24T08:02:36.720Z,56.90
2017-06-24T08:05:07.040Z,55.80
2017-06-24T08:07:35.347Z,55.20
2017-06-24T08:10:03.632Z,54.90
2017-06-24T08:12:33.092Z,55.80
2017-06-24T08:15:01.372Z,55.00
2017-06-24T08:17:29.646Z,53.80
2017-06-24T08:19:57.967Z,55.10
2017-06-24T08:22:26.252Z,55.50
2017-06-24T08:24:54.546Z,54.10
2017-06-24T08:27:24.020Z,53.60
2017-06-24T08:29:52.298Z,54.00
2017-06-24T08:32:21.711Z,53.50
2017-06-24T08:34:50.809Z,53.40
2017-06-24T08:37:19.091Z,53.70
2017-06-24T08:39:47.376Z,51.50
2017-06-24T08:44:45.599Z,51.90
2017-06-24T08:47:13.875Z,51.30
2017-06-24T08:49:42.971Z,51.50
2017-06-24T08:52:11.273Z,51.80
2017-06-24T08:54:39.579Z,52.50
2017-06-24T08:57:07.958Z,53.00
2017-06-24T08:59:36.265Z,53.90
2017-06-24T09:02:05.344Z,54.00
2017-06-24T09:04:33.679Z,54.80
2017-06-24T09:07:01.959Z,55.60
2017-06-24T09:09:30.239Z,54.80
2017-06-24T09:11:58.568Z,55.50
2017-06-24T09:14:28.355Z,55.30
2017-06-24T09:16:56.630Z,55.50
2017-06-24T09:24:24.422Z,57.10
2017-06-24T09:26:52.762Z,57.30
2017-06-24T09:31:50.946Z,57.80
2017-06-24T09:34:20.778Z,57.90
2017-06-24T09:36:49.064Z,57.50
2017-06-24T09:41:47.321Z,58.50
2017-06-24T09:44:15.995Z,58.50
2017-06-24T09:46:45.415Z,59.30
2017-06-24T09:49:13.742Z,59.60
2017-06-24T09:51:42.792Z,61.30
2017-06-24T09:56:40.641Z,59.90
2017-06-24T09:59:08.932Z,60.00
2017-06-24T10:01:37.259Z,60.10
2017-06-24T10:04:06.374Z,60.10
2017-06-24T10:06:35.470Z,60.00
2017-06-24T10:09:04.522Z,60.90
2017-06-24T10:11:32.859Z,61.80
2017-06-24T10:14:01.139Z,61.00
2017-06-24T10:16:30.559Z,61.40
2017-06-24T10:18:59.674Z,62.90
2017-06-24T10:21:29.090Z,62.80
2017-06-24T10:23:57.378Z,63.70
2017-06-24T10:26:26.471Z,63.90
2017-06-24T10:28:55.523Z,64.50
2017-06-24T10:31:23.838Z,63.60
2017-06-24T10:33:52.179Z,64.60
2017-06-24T10:36:21.971Z,63.60
2017-06-24T10:38:51.023Z,65.20
2017-06-24T10:43:48.851Z,64.10
2017-06-24T10:46:17.131Z,64.50
2017-06-24T10:51:15.368Z,64.50
2017-06-24T10:53:43.647Z,64.80
2017-06-24T10:56:12.738Z,64.50
2017-06-24T10:58:41.044Z,65.10
2017-06-24T11:01:09.346Z,64.80
2017-06-24T11:03:37.704Z,65.30
2017-06-24T11:06:07.163Z,65.60
2017-06-24T11:08:35.544Z,65.60
2017-06-24T11:11:03.906Z,65.10
2017-06-24T11:13:32.175Z,64.40
2017-06-24T11:18:30.039Z,64.60
2017-06-24T11:20:58.321Z,65.30
2017-06-24T11:23:26.599Z,65.20
2017-06-24T11:25:56.099Z,65.00
2017-06-24T11:28:24.798Z,65.80
2017-06-24T11:30:53.089Z,65.90
2017-06-24T11:33:21.443Z,66.20
2017-06-24T11:35:50.487Z,66.40
2017-06-24T11:38:18.771Z,65.90
2017-06-24T11:40:48.602Z,68.00
2017-06-24T11:45:46.790Z,66.50
2017-06-24T11:48:15.879Z,68.10
2017-06-24T11:50:44.927Z,67.70
2017-06-24T11:53:13.608Z,67.20
2017-06-24T11:55:43.447Z,67.20
2017-06-24T11:58:11.718Z,68.60
2017-06-24T12:00:40.027Z,69.00
2017-06-24T12:05:38.274Z,69.80
2017-06-24T12:08:06.592Z,69.30
2017-06-24T12:10:34.963Z,69.10
2017-06-24T12:13:03.251Z,68.90
2017-06-24T12:15:32.297Z,69.20
2017-06-24T12:18:00.622Z,69.70
2017-06-24T12:20:28.900Z,70.90
2017-06-24T12:22:57.191Z,70.30
2017-06-24T12:25:25.565Z,71.10
2017-06-24T12:27:54.623Z,71.50
2017-06-24T12:30:22.914Z,72.00
2017-06-24T12:32:51.248Z,71.60
2017-06-24T12:35:19.531Z,71.20
2017-06-24T12:37:47.806Z,71.60
2017-06-24T12:40:16.142Z,70.80
2017-06-24T12:42:44.422Z,69.30
2017-06-24T12:45:14.203Z,69.80
2017-06-24T12:47:42.535Z,70.10
2017-06-24T12:50:10.823Z,69.40
2017-06-24T12:52:39.889Z,69.30
2017-06-24T12:55:08.514Z,69.70
2017-06-24T12:57:37.964Z,69.70
2017-06-24T13:00:06.267Z,69.60
2017-06-24T13:02:34.595Z,69.10
2017-06-24T13:07:32.387Z,69.20
2017-06-24T13:12:30.614Z,69.30
2017-06-24T13:14:58.895Z,68.50
2017-06-24T13:17:27.260Z,69.40
2017-06-24T13:19:55.623Z,69.10
2017-06-24T13:22:25.452Z,68.50
2017-06-24T13:24:54.572Z,69.50
2017-06-24T13:27:24.024Z,67.70
2017-06-24T13:29:53.442Z,67.60
2017-06-24T13:32:22.539Z,67.40
2017-06-24T13:34:50.823Z,67.20
2017-06-24T13:39:49.786Z,67.20
2017-06-24T13:42:18.063Z,67.60
2017-06-24T13:44:46.339Z,67.60
2017-06-24T13:47:14.662Z,67.60
2017-06-24T13:49:42.939Z,67.60
2017-06-24T13:52:11.222Z,67.60
2017-06-24T13:54:39.584Z,68.10
2017-06-24T13:57:09.039Z,67.70
2017-06-24T13:59:37.350Z,67.80
2017-06-24T14:02:07.200Z,68.00
2017-06-24T14:04:35.892Z,67.60
2017-06-24T14:07:04.171Z,67.50
2017-06-24T14:09:32.495Z,68.10
2017-06-24T14:12:01.539Z,68.70
2017-06-24T14:14:30.579Z,67.70
2017-06-24T14:16:59.666Z,67.50
2017-06-24T14:19:27.938Z,66.30
2017-06-24T14:21:57.015Z,66.80
2017-06-24T14:24:25.759Z,67.70
2017-06-24T14:26:54.051Z,67.20
2017-06-24T14:29:23.102Z,67.70
2017-06-24T14:31:52.939Z,66.90
2017-06-24T14:34:22.346Z,67.90
2017-06-24T14:36:50.622Z,67.10
2017-06-24T14:39:18.946Z,66.60
2017-06-24T14:41:47.223Z,67.00
2017-06-24T14:44:15.506Z,66.70
2017-06-24T14:46:43.870Z,66.80
2017-06-24T14:51:42.035Z,67.10
2017-06-24T14:54:10.389Z,67.00
2017-06-24T14:56:39.467Z,67.30
2017-06-24T15:01:37.751Z,66.90
2017-06-24T15:04:06.046Z,66.60
2017-06-24T15:06:34.314Z,66.70
2017-06-24T15:11:32.139Z,66.60
2017-06-24T15:14:00.415Z,66.40
2017-06-24T15:16:28.734Z,67.20
2017-06-24T15:18:57.012Z,68.00
2017-06-24T15:21:26.796Z,67.60
2017-06-24T15:26:25.433Z,67.50
2017-06-24T15:28:54.119Z,67.60
2017-06-24T15:31:23.586Z,67.70
2017-06-24T15:33:52.266Z,67.30
2017-06-24T15:36:20.939Z,67.00
2017-06-24T15:38:49.798Z,68.30
2017-06-24T15:41:18.475Z,67.80
2017-06-24T15:46:16.625Z,66.80
2017-06-24T15:48:45.707Z,67.40
2017-06-24T15:51:14.083Z,67.10
2017-06-24T15:53:42.403Z,66.30
2017-06-24T15:56:10.692Z,65.90
2017-06-24T15:58:38.977Z,65.60
2017-06-24T16:01:07.343Z,66.00
2017-06-24T16:03:36.421Z,66.10
2017-06-24T16:06:04.703Z,65.60
2017-06-24T16:11:03.315Z,65.50
2017-06-24T16:13:31.600Z,65.70
2017-06-24T16:16:00.821Z,65.50
2017-06-24T16:18:29.094Z,65.10
2017-06-24T16:23:27.592Z,65.40
2017-06-24T16:28:25.391Z,65.50
2017-06-24T16:30:53.738Z,66.00
2017-06-24T16:33:22.015Z,65.70
2017-06-24T16:35:51.799Z,65.00
2017-06-24T16:38:20.123Z,64.60
2017-06-24T16:40:48.402Z,64.80
2017-06-24T16:43:18.190Z,65.00
2017-06-24T16:48:16.790Z,64.60
2017-06-24T16:50:45.075Z,64.30
2017-06-24T16:53:13.414Z,64.10
2017-06-24T16:55:41.709Z,65.10
2017-06-24T16:58:10.019Z,64.40
2017-06-24T17:00:39.139Z,63.80
2017-06-24T17:03:08.219Z,64.10
2017-06-24T17:05:37.271Z,64.40
2017-06-24T17:08:05.623Z,64.20
2017-06-24T17:10:33.911Z,64.30
2017-06-24T17:13:02.187Z,64.30
2017-06-24T17:15:30.516Z,64.50
2017-06-24T17:17:59.562Z,64.50
2017-06-24T17:20:41.127Z,64.70
2017-06-24T17:23:29.756Z,65.10
2017-06-24T17:26:05.559Z,65.90
2017-06-24T17:28:34.600Z,65.90
2017-06-24T17:33:32.815Z,65.80
2017-06-24T17:36:01.087Z,65.80
2017-06-24T17:38:29.363Z,65.70
2017-06-24T17:40:57.690Z,66.30
2017-06-24T17:45:56.254Z,69.90
2017-06-24T17:48:24.996Z,72.50
2017-06-24T17:53:23.953Z,76.30
2017-06-24T17:55:53.427Z,77.30
2017-06-24T17:58:21.713Z,78.70
2017-06-24T18:00:49.990Z,79.60
2017-06-24T18:03:19.095Z,81.50
2017-06-24T18:05:48.135Z,81.10
2017-06-24T18:08:16.818Z,81.80
2017-06-24T18:13:14.675Z,83.00
2017-06-24T18:15:42.984Z,83.70
2017-06-24T18:18:11.327Z,84.00
2017-06-24T18:20:39.621Z,84.70
2017-06-24T18:23:08.751Z,84.90
2017-06-24T18:25:37.903Z,85.20
2017-06-24T18:28:06.965Z,85.30
2017-06-24T18:30:35.259Z,85.80
2017-06-24T18:33:05.131Z,86.50
2017-06-24T18:35:33.427Z,86.60
2017-06-24T18:40:31.271Z,86.60
2017-06-24T18:43:00.326Z,87.20
2017-06-24T18:50:28.079Z,87.00
2017-06-24T18:52:56.383Z,87.00
2017-06-24T18:55:24.752Z,87.00
2017-06-24T18:57:53.043Z,87.00
2017-06-24T19:00:21.331Z,87.40
2017-06-24T19:02:51.175Z,87.20
2017-06-24T19:05:19.868Z,87.40
2017-06-24T19:07:49.398Z,87.40
2017-06-24T19:10:19.210Z,87.40
2017-06-24T19:12:49.010Z,87.40
2017-06-24T19:17:47.520Z,87.80
2017-06-24T19:22:45.710Z,88.40
2017-06-24T19:25:14.080Z,88.60
2017-06-24T19:27:42.371Z,88.50
2017-06-24T19:30:10.669Z,88.20
2017-06-24T19:32:40.166Z,88.20
2017-06-24T19:35:08.467Z,88.40
2017-06-24T19:37:36.781Z,88.40
2017-06-24T19:40:06.279Z,88.60
2017-06-24T19:42:34.979Z,88.60
2017-06-24T19:45:03.265Z,88.60
2017-06-24T19:47:31.598Z,88.70
2017-06-24T19:52:30.550Z,88.60
2017-06-24T19:54:59.071Z,88.90
2017-06-24T19:57:27.363Z,89.20
2017-06-24T19:59:55.646Z,89.10
2017-06-24T20:02:23.999Z,89.20
2017-06-24T20:04:52.284Z,89.80
2017-06-24T20:07:21.335Z,89.90
2017-06-24T20:09:49.666Z,89.90
2017-06-24T20:12:17.955Z,89.80
2017-06-24T20:14:46.242Z,90.00
2017-06-24T20:19:44.513Z,90.00
2017-06-24T20:22:12.811Z,90.00
2017-06-24T20:24:41.176Z,89.90
2017-06-24T20:27:10.263Z,90.10
2017-06-24T20:29:38.567Z,89.80
2017-06-24T20:32:07.660Z,89.90
2017-06-24T20:37:06.602Z,89.70
2017-06-24T20:39:34.926Z,89.60
2017-06-24T20:42:03.982Z,90.20
2017-06-24T20:44:33.778Z,90.20
2017-06-24T20:47:02.134Z,90.00
2017-06-24T20:49:31.930Z,90.40
2017-06-24T20:52:00.232Z,90.10
2017-06-24T20:54:29.755Z,90.10
2017-06-24T20:56:58.070Z,90.00
2017-06-24T21:01:56.319Z,90.10
2017-06-24T21:04:24.611Z,90.10
2017-06-24T21:06:52.902Z,90.00
2017-06-24T21:09:21.234Z,90.00
2017-06-24T21:11:50.291Z,90.10
2017-06-24T21:14:18.578Z,90.00
2017-06-24T21:16:48.414Z,90.00
2017-06-24T21:19:17.104Z,90.30
2017-06-24T21:21:45.404Z,90.20
2017-06-24T21:24:13.775Z,90.10
2017-06-24T21:26:42.850Z,90.10
2017-06-24T21:29:11.157Z,90.10
2017-06-24T21:31:39.516Z,90.10
2017-06-24T21:34:07.807Z,90.10
2017-06-24T21:36:36.096Z,90.10
2017-06-24T21:39:05.963Z,90.10
2017-06-24T21:41:34.251Z,90.10
2017-06-24T21:46:32.512Z,90.10
2017-06-24T21:49:01.563Z,90.50
2017-06-24T21:51:29.860Z,90.10
2017-06-24T21:53:58.242Z,89.90
2017-06-24T21:56:26.531Z,89.70
2017-06-24T21:58:54.816Z,89.80
2017-06-24T22:01:23.146Z,89.70
2017-06-24T22:03:51.437Z,89.70
2017-06-24T22:06:21.230Z,90.00
2017-06-24T22:08:49.566Z,89.50
2017-06-24T22:13:47.367Z,90.00
2017-06-24T22:16:16.463Z,90.10
2017-06-24T22:18:45.546Z,89.60
2017-06-24T22:21:14.278Z,89.40
2017-06-24T22:23:42.627Z,89.30
2017-06-24T22:33:41.155Z,89.00
2017-06-24T22:36:10.308Z,89.20
2017-06-24T22:38:38.980Z,89.30
2017-06-24T22:41:08.398Z,89.10
2017-06-24T22:43:36.754Z,89.20
2017-06-24T22:46:06.582Z,89.20
2017-06-24T22:48:34.870Z,88.80
2017-06-24T22:51:03.191Z,88.80
2017-06-24T22:54:02.732Z,89.40
2017-06-24T22:56:31.806Z,90.00
2017-06-24T22:59:00.121Z,89.20
2017-06-24T23:01:28.472Z,90.00
2017-06-24T23:03:58.331Z,90.00
2017-06-24T23:06:28.186Z,89.40
2017-06-24T23:08:56.511Z,89.50
2017-06-24T23:11:25.563Z,89.40
2017-06-24T23:13:53.882Z,90.00
2017-06-24T23:16:22.207Z,89.80
2017-06-24T23:18:52.006Z,89.20
2017-06-24T23:23:50.266Z,88.20
2017-06-24T23:26:18.543Z,88.10
2017-06-24T23:28:48.370Z,87.60
2017-06-24T23:31:16.686Z,87.30
2017-06-24T23:33:45.755Z,87.40
2017-06-24T23:36:14.879Z,87.00
2017-06-24T23:38:43.244Z,87.00
2017-06-24T23:41:11.616Z,87.40
2017-06-24T23:43:39.955Z,87.50
2017-06-24T23:46:08.290Z,86.70
2017-06-24T23:48:38.091Z,86.80
2017-06-24T23:51:06.415Z,86.90
2017-06-24T23:56:05.762Z,87.40
2017-06-24T23:58:34.090Z,87.00
